createdAt,value
2023-04-07T00:02:40.000Z,14.5
2023-04-07T00:06:13.000Z,11.8
2023-04-07T00:09:55.000Z,16.7
2023-04-07T00:13:28.000Z,17.3
2023-04-07T00:17:01.000Z,15.5
2023-04-07T00:20:33.000Z,16.2
2023-04-07T00:24:06.000Z,12
2023-04-07T00:27:52.000Z,15.7
2023-04-07T00:31:24.000Z,13
2023-04-07T00:34:16.000Z,15.7
2023-04-07T00:37:48.000Z,12.8
2023-04-07T00:41:21.000Z,13.6
2023-04-07T00:44:53.000Z,14.9
2023-04-07T00:48:26.000Z,11.7
2023-04-07T00:51:59.000Z,13
2023-04-07T00:55:31.000Z,11
2023-04-07T00:59:04.000Z,12
2023-04-07T01:02:37.000Z,11.8
2023-04-07T01:06:10.000Z,10.8
2023-04-07T01:09:43.000Z,12.9
2023-04-07T01:12:34.000Z,13.3
2023-04-07T01:16:06.000Z,11
2023-04-07T01:19:39.000Z,12.7
2023-04-07T01:23:12.000Z,11.7
2023-04-07T01:26:44.000Z,13.3
2023-04-07T01:30:17.000Z,12.7
2023-04-07T01:33:50.000Z,10.7
2023-04-07T01:37:22.000Z,10.7
2023-04-07T01:40:55.000Z,10.5
2023-04-07T01:44:28.000Z,9.7
2023-04-07T01:48:01.000Z,10
2023-04-07T01:50:52.000Z,12.1
2023-04-07T01:54:25.000Z,10.7
2023-04-07T01:57:57.000Z,10.8
2023-04-07T02:01:30.000Z,8.8
2023-04-07T02:05:03.000Z,10.1
2023-04-07T02:08:36.000Z,8.3
2023-04-07T02:12:09.000Z,8.5
2023-04-07T02:15:41.000Z,10.1
2023-04-07T02:19:14.000Z,9.1
2023-04-07T02:22:46.000Z,10
2023-04-07T02:26:19.000Z,8.8
2023-04-07T02:29:10.000Z,8.8
2023-04-07T02:32:43.000Z,10.1
2023-04-07T02:36:15.000Z,7.7
2023-04-07T02:39:48.000Z,8.9
2023-04-07T02:43:21.000Z,9.1
2023-04-07T02:46:53.000Z,7.8
2023-04-07T02:50:26.000Z,7.5
2023-04-07T02:53:58.000Z,9.2
2023-04-07T02:57:31.000Z,8.4
2023-04-07T03:01:04.000Z,8.9
2023-04-07T03:04:37.000Z,10.8
2023-04-07T03:07:28.000Z,9.6
2023-04-07T03:11:00.000Z,9.2
2023-04-07T03:14:33.000Z,8.2
2023-04-07T03:18:05.000Z,8
2023-04-07T03:21:38.000Z,8.4
2023-04-07T03:25:11.000Z,9.2
2023-04-07T03:28:43.000Z,9.3
2023-04-07T03:32:16.000Z,9.2
2023-04-07T03:35:49.000Z,11.2
2023-04-07T03:39:22.000Z,10.1
2023-04-07T03:42:54.000Z,10.1
2023-04-07T03:45:46.000Z,10.1
2023-04-07T03:49:18.000Z,9
2023-04-07T03:52:51.000Z,9.9
2023-04-07T03:56:24.000Z,8.8
2023-04-07T03:59:56.000Z,9.2
2023-04-07T04:03:29.000Z,9
2023-04-07T04:07:02.000Z,9.2
2023-04-07T04:10:35.000Z,9.3
2023-04-07T04:14:07.000Z,8.6
2023-04-07T04:17:40.000Z,9.7
2023-04-07T04:21:13.000Z,9.9
2023-04-07T04:24:04.000Z,8.4
2023-04-07T04:27:37.000Z,8.7
2023-04-07T04:31:09.000Z,9
2023-04-07T04:34:42.000Z,9
2023-04-07T04:38:15.000Z,8.7
2023-04-07T04:41:47.000Z,7.7
2023-04-07T04:45:20.000Z,9.7
2023-04-07T04:48:53.000Z,7.6
2023-04-07T04:52:25.000Z,8.7
2023-04-07T04:55:58.000Z,8.9
2023-04-07T04:59:30.000Z,8.5
2023-04-07T05:02:22.000Z,8.4
2023-04-07T05:05:55.000Z,10.5
2023-04-07T05:09:28.000Z,8.7
2023-04-07T05:13:00.000Z,8.5
2023-04-07T05:16:33.000Z,8.4
2023-04-07T05:20:05.000Z,9.2
2023-04-07T05:23:38.000Z,8.8
2023-04-07T05:27:10.000Z,11.9
2023-04-07T05:30:43.000Z,10.9
2023-04-07T05:34:16.000Z,17.5
2023-04-07T05:37:49.000Z,14.8
2023-04-07T05:40:40.000Z,13.3
2023-04-07T05:44:12.000Z,12.4
2023-04-07T05:47:45.000Z,12.3
2023-04-07T05:51:19.000Z,12.5
2023-04-07T05:54:52.000Z,11.8
2023-04-07T05:58:24.000Z,12.1
2023-04-07T06:01:57.000Z,11.5
2023-04-07T06:05:30.000Z,11.6
2023-04-07T06:09:03.000Z,15.8
2023-04-07T06:12:36.000Z,14
2023-04-07T06:16:08.000Z,29.3
2023-04-07T06:19:03.000Z,18.5
2023-04-07T06:22:35.000Z,18.4
2023-04-07T06:26:08.000Z,14.8
2023-04-07T06:29:40.000Z,15.1
2023-04-07T06:33:13.000Z,15.5
2023-04-07T06:36:45.000Z,12.9
2023-04-07T06:40:18.000Z,14.2
2023-04-07T06:43:51.000Z,13.2
2023-04-07T06:47:23.000Z,12
2023-04-07T06:50:56.000Z,12.5
2023-04-07T06:54:29.000Z,11.9
2023-04-07T06:57:20.000Z,12.9
2023-04-07T07:00:52.000Z,13.7
2023-04-07T07:04:25.000Z,14.9
2023-04-07T07:07:58.000Z,13.1
2023-04-07T07:11:31.000Z,15.1
2023-04-07T07:15:03.000Z,12.4
2023-04-07T07:18:36.000Z,14.7
2023-04-07T07:22:09.000Z,14.5
2023-04-07T07:25:41.000Z,14.2
2023-04-07T07:29:14.000Z,18.3
2023-04-07T07:32:47.000Z,13.8
2023-04-07T07:35:38.000Z,15.9
2023-04-07T07:39:10.000Z,17.3
2023-04-07T07:42:43.000Z,14.9
2023-04-07T07:46:16.000Z,15.8
2023-04-07T07:49:48.000Z,18.4
2023-04-07T07:53:21.000Z,20.3
2023-04-07T07:56:54.000Z,21.1
2023-04-07T08:00:26.000Z,21.2
2023-04-07T08:03:59.000Z,22
2023-04-07T08:07:32.000Z,22.7
2023-04-07T08:11:05.000Z,23.2
2023-04-07T08:13:56.000Z,24.1
2023-04-07T08:17:28.000Z,26.3
2023-04-07T08:21:01.000Z,26.4
2023-04-07T08:24:34.000Z,23.7
2023-04-07T08:28:06.000Z,24.1
2023-04-07T08:31:39.000Z,24.5
2023-04-07T08:35:12.000Z,23.2
2023-04-07T08:38:44.000Z,24
2023-04-07T08:42:17.000Z,25.1
2023-04-07T08:45:50.000Z,26
2023-04-07T08:49:23.000Z,27.1
2023-04-07T08:52:14.000Z,26.5
2023-04-07T08:55:47.000Z,25.5
2023-04-07T08:59:19.000Z,26.4
2023-04-07T09:02:52.000Z,26.9
2023-04-07T09:06:25.000Z,25.5
2023-04-07T09:09:57.000Z,28.3
2023-04-07T09:13:30.000Z,23.1
2023-04-07T09:17:03.000Z,25.2
2023-04-07T09:20:35.000Z,25.2
2023-04-07T09:24:08.000Z,25.2
2023-04-07T09:27:41.000Z,25.4
2023-04-07T09:30:32.000Z,25.1
2023-04-07T09:34:04.000Z,23.9
2023-04-07T09:37:37.000Z,24.7
2023-04-07T09:41:10.000Z,21.9
2023-04-07T09:44:43.000Z,25.6
2023-04-07T09:48:15.000Z,21.8
2023-04-07T09:51:48.000Z,24.6
2023-04-07T09:55:21.000Z,23.1
2023-04-07T09:58:53.000Z,24.2
2023-04-07T10:02:26.000Z,22
2023-04-07T10:05:59.000Z,21.5
2023-04-07T10:08:50.000Z,23.3
2023-04-07T10:12:23.000Z,20.9
2023-04-07T10:15:56.000Z,21.9
2023-04-07T10:19:28.000Z,22.1
2023-04-07T10:23:01.000Z,21.6
2023-04-07T10:26:34.000Z,19.2
2023-04-07T10:30:07.000Z,21.3
2023-04-07T10:33:39.000Z,17.5
2023-04-07T10:37:13.000Z,16.7
2023-04-07T10:40:45.000Z,20.6
2023-04-07T10:44:18.000Z,18.6
2023-04-07T10:47:09.000Z,17.3
2023-04-07T10:50:42.000Z,18.5
2023-04-07T10:54:14.000Z,17.7
2023-04-07T10:57:47.000Z,19.1
2023-04-07T11:01:20.000Z,17.3
2023-04-07T11:04:53.000Z,18
2023-04-07T11:08:25.000Z,18.5
2023-04-07T11:11:58.000Z,16.8
2023-04-07T11:15:31.000Z,18.5
2023-04-07T11:19:06.000Z,15.8
2023-04-07T11:22:38.000Z,15.2
2023-04-07T11:25:29.000Z,16.4
2023-04-07T11:29:02.000Z,15
2023-04-07T11:32:34.000Z,14.8
2023-04-07T11:36:07.000Z,15.7
2023-04-07T11:39:40.000Z,14.1
2023-04-07T11:43:12.000Z,15.4
2023-04-07T11:46:45.000Z,14.6
2023-04-07T11:50:18.000Z,15
2023-04-07T11:53:50.000Z,13.1
2023-04-07T11:57:23.000Z,14.2
2023-04-07T12:00:55.000Z,15.3
2023-04-07T12:03:47.000Z,16.7
2023-04-07T12:07:20.000Z,15.1
2023-04-07T12:10:53.000Z,12.3
2023-04-07T12:14:26.000Z,15.6
2023-04-07T12:17:58.000Z,17.4
2023-04-07T12:21:31.000Z,15.7
2023-04-07T12:25:04.000Z,16.9
2023-04-07T12:28:36.000Z,16.6
2023-04-07T12:32:09.000Z,15.2
2023-04-07T12:35:42.000Z,14.8
2023-04-07T12:39:14.000Z,17.3
2023-04-07T12:42:05.000Z,14.5
2023-04-07T12:45:38.000Z,17.9
2023-04-07T12:49:11.000Z,15.2
2023-04-07T12:52:43.000Z,12.7
2023-04-07T12:56:16.000Z,12.4
2023-04-07T12:59:49.000Z,12.4
2023-04-07T13:03:21.000Z,13.4
2023-04-07T13:06:55.000Z,14.3
2023-04-07T13:10:27.000Z,11.4
2023-04-07T13:14:00.000Z,13.2
2023-04-07T13:17:33.000Z,10.2
2023-04-07T13:20:24.000Z,11
2023-04-07T13:23:56.000Z,12.4
2023-04-07T13:27:29.000Z,11.9
2023-04-07T13:31:02.000Z,15.6
2023-04-07T13:34:34.000Z,12.2
2023-04-07T13:38:07.000Z,10.5
2023-04-07T13:41:40.000Z,10.7
2023-04-07T13:45:12.000Z,11.1
2023-04-07T13:48:45.000Z,12.5
2023-04-07T13:52:18.000Z,11.6
2023-04-07T13:55:51.000Z,10.6
2023-04-07T13:58:42.000Z,10.9
2023-04-07T14:02:14.000Z,9.6
2023-04-07T14:05:47.000Z,10.8
2023-04-07T14:09:20.000Z,9.9
2023-04-07T14:12:53.000Z,11.9
2023-04-07T14:16:25.000Z,11.7
2023-04-07T14:19:58.000Z,13
2023-04-07T14:23:30.000Z,11.7
2023-04-07T14:27:03.000Z,9.6
2023-04-07T14:30:36.000Z,9.8
2023-04-07T14:34:08.000Z,8.6
2023-04-07T14:37:00.000Z,8.8
2023-04-07T14:40:34.000Z,9.3
2023-04-07T14:44:06.000Z,8.3
2023-04-07T14:47:39.000Z,8.6
2023-04-07T14:51:11.000Z,8
2023-04-07T14:54:44.000Z,8.2
2023-04-07T14:58:17.000Z,7.7
2023-04-07T15:01:49.000Z,7.8
2023-04-07T15:05:22.000Z,6.8
2023-04-07T15:08:55.000Z,6.7
2023-04-07T15:12:28.000Z,6.6
2023-04-07T15:15:19.000Z,6.1
2023-04-07T15:18:52.000Z,8.1
2023-04-07T15:22:24.000Z,6.8
2023-04-07T15:25:57.000Z,7.5
2023-04-07T15:29:30.000Z,6
2023-04-07T15:33:02.000Z,7.4
2023-04-07T15:36:35.000Z,6.4
2023-04-07T15:40:08.000Z,6.7
2023-04-07T15:43:40.000Z,6.2
2023-04-07T15:47:13.000Z,6.2
2023-04-07T15:50:46.000Z,7.6
2023-04-07T15:53:37.000Z,6.9
2023-04-07T15:57:10.000Z,6
2023-04-07T16:00:42.000Z,7
2023-04-07T16:04:15.000Z,7.8
2023-04-07T16:07:48.000Z,6.4
2023-04-07T16:11:20.000Z,7.2
2023-04-07T16:14:53.000Z,6.8
2023-04-07T16:18:26.000Z,5.8
2023-04-07T16:21:58.000Z,7.2
2023-04-07T16:25:31.000Z,6
2023-04-07T16:29:03.000Z,6.6
2023-04-07T16:31:54.000Z,5.6
2023-04-07T16:35:27.000Z,7
2023-04-07T16:39:00.000Z,6
2023-04-07T16:42:33.000Z,6
2023-04-07T16:46:05.000Z,6
2023-04-07T16:49:38.000Z,6.8
2023-04-07T16:53:11.000Z,6.2
2023-04-07T16:56:46.000Z,6.8
2023-04-07T17:00:18.000Z,6
2023-04-07T17:03:51.000Z,6.7
2023-04-07T17:07:24.000Z,5.6
2023-04-07T17:10:15.000Z,5.8
2023-04-07T17:13:48.000Z,5.9
2023-04-07T17:17:22.000Z,5.9
2023-04-07T17:20:55.000Z,6.6
2023-04-07T17:24:28.000Z,8.1
2023-04-07T17:28:01.000Z,6.7
2023-04-07T17:31:33.000Z,6.8
2023-04-07T17:35:06.000Z,7.1
2023-04-07T17:38:39.000Z,7
2023-04-07T17:42:11.000Z,9.9
2023-04-07T17:45:44.000Z,11.1
2023-04-07T17:48:35.000Z,14.6
2023-04-07T17:52:08.000Z,15.7
2023-04-07T17:55:40.000Z,10.1
2023-04-07T17:59:13.000Z,10.3
2023-04-07T18:02:45.000Z,9.8
2023-04-07T18:06:19.000Z,8.2
2023-04-07T18:09:51.000Z,8.5
2023-04-07T18:13:24.000Z,7.8
2023-04-07T18:16:57.000Z,6.9
2023-04-07T18:20:29.000Z,5.9
2023-04-07T18:24:02.000Z,6.5
2023-04-07T18:26:54.000Z,7.6
2023-04-07T18:30:26.000Z,10.5
2023-04-07T18:33:59.000Z,13.4
2023-04-07T18:37:32.000Z,10.8
2023-04-07T18:41:04.000Z,15.9
2023-04-07T18:44:37.000Z,12.8
2023-04-07T18:48:10.000Z,10.5
2023-04-07T18:51:42.000Z,10.9
2023-04-07T18:55:15.000Z,8.1
2023-04-07T18:58:48.000Z,6.5
2023-04-07T19:02:20.000Z,5.6
2023-04-07T19:05:12.000Z,7
2023-04-07T19:08:49.000Z,6
2023-04-07T19:12:22.000Z,7
2023-04-07T19:15:54.000Z,6.5
2023-04-07T19:19:27.000Z,7.1
2023-04-07T19:23:00.000Z,12.3
2023-04-07T19:26:32.000Z,26
2023-04-07T19:30:05.000Z,9.2
2023-04-07T19:33:38.000Z,5.6
2023-04-07T19:37:11.000Z,7
2023-04-07T19:40:43.000Z,6.1
2023-04-07T19:43:34.000Z,7
2023-04-07T19:47:07.000Z,7.5
2023-04-07T19:50:40.000Z,5.7
2023-04-07T19:54:12.000Z,7.4
2023-04-07T19:57:45.000Z,8.5
2023-04-07T20:01:17.000Z,7.6
2023-04-07T20:04:50.000Z,7.8
2023-04-07T20:08:23.000Z,6.8
2023-04-07T20:11:55.000Z,9.5
2023-04-07T20:15:28.000Z,8.2
2023-04-07T20:19:01.000Z,9
2023-04-07T20:21:52.000Z,9.2
2023-04-07T20:25:25.000Z,10.1
2023-04-07T20:28:57.000Z,13.2
2023-04-07T20:32:30.000Z,13.5
2023-04-07T20:36:03.000Z,12.8
2023-04-07T20:39:35.000Z,9.9
2023-04-07T20:43:08.000Z,9.3
2023-04-07T20:46:40.000Z,8.1
2023-04-07T20:50:13.000Z,7.1
2023-04-07T20:53:46.000Z,8.8
2023-04-07T20:57:18.000Z,10.3
2023-04-07T21:00:10.000Z,9.8
2023-04-07T21:03:44.000Z,9.7
2023-04-07T21:07:17.000Z,13.1
2023-04-07T21:10:49.000Z,12.4
2023-04-07T21:14:22.000Z,18.4
2023-04-07T21:17:55.000Z,14
2023-04-07T21:21:28.000Z,10.5
2023-04-07T21:25:00.000Z,11.8
2023-04-07T21:28:33.000Z,10.6
2023-04-07T21:32:05.000Z,12.1
2023-04-07T21:35:38.000Z,14.4
2023-04-07T21:38:32.000Z,11.4
2023-04-07T21:42:05.000Z,11
2023-04-07T21:45:37.000Z,11.5
2023-04-07T21:49:10.000Z,10.6
2023-04-07T21:52:43.000Z,9.9
2023-04-07T21:56:15.000Z,10.8
2023-04-07T21:59:48.000Z,9.2
2023-04-07T22:03:21.000Z,10.1
2023-04-07T22:06:53.000Z,8.4
2023-04-07T22:10:26.000Z,9.7
2023-04-07T22:13:59.000Z,10.8
2023-04-07T22:16:50.000Z,9.1
2023-04-07T22:20:23.000Z,9.1
2023-04-07T22:23:55.000Z,9.9
2023-04-07T22:27:28.000Z,9.8
2023-04-07T22:31:01.000Z,10.3
2023-04-07T22:34:33.000Z,10.9
2023-04-07T22:38:06.000Z,11.1
2023-04-07T22:41:39.000Z,11.6
2023-04-07T22:45:11.000Z,11.7
2023-04-07T22:48:44.000Z,11.1
2023-04-07T22:52:17.000Z,9.4
2023-04-07T22:55:08.000Z,11.4
2023-04-07T22:58:41.000Z,12.9
2023-04-07T23:02:14.000Z,9.3
2023-04-07T23:05:47.000Z,12
2023-04-07T23:09:19.000Z,12.3
2023-04-07T23:12:52.000Z,12.1
2023-04-07T23:16:24.000Z,11.8
2023-04-07T23:19:57.000Z,12.1
2023-04-07T23:23:30.000Z,11.5
2023-04-07T23:27:02.000Z,12
2023-04-07T23:30:35.000Z,11.9
2023-04-07T23:33:26.000Z,13.1
2023-04-07T23:36:59.000Z,10.7
2023-04-07T23:40:31.000Z,11.6
2023-04-07T23:44:04.000Z,13.1
2023-04-07T23:47:36.000Z,14.2
2023-04-07T23:51:09.000Z,12.7
2023-04-07T23:54:42.000Z,12.8
2023-04-07T23:58:14.000Z,13.3
